Flint, Texas
Current Conditions -  °F | °C
As of 11:53 AM on Thursday 23 Oct 2014 (Local Time) from KTYR Reporting Station
Clear Clear  
Wind Chill: 69°   Ceiling: Unl
Heat Index: 69°   Visibility: 10mi
Dew Point: 51°   Wind: 5mph
Humidity: 53%   Direction: NA
Pressure: 30.18"   Gusts: NA
Location:  32.2°N, 95.35°W
Report Text: KTYR 231653Z VRB04KT 10SM CLR 21/11 A3018 RMK AO2 SLP214 T02060106
Loading
Personal Weather Stations






























Interactive Weather Map
Tropical Storm Tracking
New forecast layout! Learn more

10-Day Weather Forecast

Advertisements
Track Severe Weather on mobile